KBNA/BNA METAR and TAF weather

Enter ICAO airport designator
Station Type Date Time Source
KBNA METAR 2022/05/24 11:53 UTC NOAA

KBNA 241153Z 10005KT 10SM OVC007 16/13 A3011 RMK AO2 SLP193 T01610128 10161 20156 50011


Station Type Date Time Source
KBNA Decoded METAR 2022/05/24 11:53 UTC NOAA

NASHVILLE INTERNATIONAL AIRPORT, TN, United States (KBNA) 36-07N 086-41W 210M
May 24, 2022 - 07:53 AM EDT / 2022.05.24 1153 UTC
Wind: from the E (100 degrees) at 6 MPH (5 KT):0
Visibility: 10 mile(s):0
Sky conditions: overcast
Temperature: 61.0 F (16.1 C)
Dew Point: 55.0 F (12.8 C)
Relative Humidity: 80%
Pressure (altimeter): 30.11 in. Hg (1019 hPa)
Pressure tendency: 0.03 inches (1.1 hPa) higher than three hours ago
ob: KBNA 241153Z 10005KT 10SM OVC007 16/13 A3011 RMK AO2 SLP193 T01610128 10161 20156 50011
cycle: 12

Station Type Date Time Source
KBNA TAF 2022/05/24 12:28 UTC NOAA

TAF KBNA 241126Z 2412/2512 07005KT P6SM OVC007
FM241600 13007KT P6SM BKN008 OVC015
FM242200 14005KT P6SM VCSH BKN025 OVC050
FM250200 15005KT P6SM -SHRA BKN050 OVC120

Example: see airport list